sensor_id;sensor_type;location;lat;lon;timestamp;P1;durP1;ratioP1;P2;durP2;ratioP2
72422;SDS011;71399;54.146;38.734;2023-09-07T00:01:47;3.42;;;1.67;;
72422;SDS011;71399;54.146;38.734;2023-09-07T00:04:13;2.92;;;1.48;;
72422;SDS011;71399;54.146;38.734;2023-09-07T00:06:40;9.73;;;1.95;;
72422;SDS011;71399;54.146;38.734;2023-09-07T00:09:09;6.07;;;1.60;;
72422;SDS011;71399;54.146;38.734;2023-09-07T00:11:37;6.35;;;1.90;;
72422;SDS011;71399;54.146;38.734;2023-09-07T00:14:03;4.97;;;1.40;;
72422;SDS011;71399;54.146;38.734;2023-09-07T00:16:33;2.92;;;1.30;;
72422;SDS011;71399;54.146;38.734;2023-09-07T00:19:01;10.30;;;2.08;;
72422;SDS011;71399;54.146;38.734;2023-09-07T00:21:30;7.47;;;1.60;;
72422;SDS011;71399;54.146;38.734;2023-09-07T00:23:57;3.05;;;1.48;;
72422;SDS011;71399;54.146;38.734;2023-09-07T00:26:23;7.78;;;1.92;;
72422;SDS011;71399;54.146;38.734;2023-09-07T00:28:49;7.72;;;1.60;;
72422;SDS011;71399;54.146;38.734;2023-09-07T00:31:15;5.82;;;1.35;;
72422;SDS011;71399;54.146;38.734;2023-09-07T00:33:41;11.23;;;2.22;;
72422;SDS011;71399;54.146;38.734;2023-09-07T00:36:08;3.67;;;1.25;;
72422;SDS011;71399;54.146;38.734;2023-09-07T00:38:34;3.30;;;1.27;;
72422;SDS011;71399;54.146;38.734;2023-09-07T00:41:00;8.70;;;1.42;;
72422;SDS011;71399;54.146;38.734;2023-09-07T00:43:26;7.80;;;1.50;;
72422;SDS011;71399;54.146;38.734;2023-09-07T00:45:52;6.15;;;1.50;;
72422;SDS011;71399;54.146;38.734;2023-09-07T00:48:19;4.20;;;1.45;;
72422;SDS011;71399;54.146;38.734;2023-09-07T00:50:46;8.30;;;1.77;;
72422;SDS011;71399;54.146;38.734;2023-09-07T00:53:13;7.82;;;1.90;;
72422;SDS011;71399;54.146;38.734;2023-09-07T00:55:40;11.90;;;1.45;;
72422;SDS011;71399;54.146;38.734;2023-09-07T00:58:07;6.68;;;1.42;;
72422;SDS011;71399;54.146;38.734;2023-09-07T01:00:33;9.73;;;1.40;;
72422;SDS011;71399;54.146;38.734;2023-09-07T01:03:00;8.40;;;1.83;;
72422;SDS011;71399;54.146;38.734;2023-09-07T01:05:32;7.65;;;2.00;;
72422;SDS011;71399;54.146;38.734;2023-09-07T01:08:19;5.70;;;1.27;;
72422;SDS011;71399;54.146;38.734;2023-09-07T01:10:51;9.93;;;1.70;;
72422;SDS011;71399;54.146;38.734;2023-09-07T01:13:18;4.78;;;1.83;;
72422;SDS011;71399;54.146;38.734;2023-09-07T01:15:45;6.00;;;1.52;;
72422;SDS011;71399;54.146;38.734;2023-09-07T01:18:12;5.35;;;1.40;;
72422;SDS011;71399;54.146;38.734;2023-09-07T01:20:40;8.95;;;1.65;;
72422;SDS011;71399;54.146;38.734;2023-09-07T01:23:08;9.48;;;1.80;;
72422;SDS011;71399;54.146;38.734;2023-09-07T01:25:36;6.55;;;1.73;;
72422;SDS011;71399;54.146;38.734;2023-09-07T01:28:03;12.10;;;1.67;;
72422;SDS011;71399;54.146;38.734;2023-09-07T01:30:29;4.70;;;1.33;;
72422;SDS011;71399;54.146;38.734;2023-09-07T01:32:56;7.57;;;2.15;;
72422;SDS011;71399;54.146;38.734;2023-09-07T01:35:22;4.57;;;1.45;;
72422;SDS011;71399;54.146;38.734;2023-09-07T01:37:49;8.95;;;2.08;;
72422;SDS011;71399;54.146;38.734;2023-09-07T01:40:15;6.57;;;1.58;;
72422;SDS011;71399;54.146;38.734;2023-09-07T01:42:41;6.57;;;1.63;;
72422;SDS011;71399;54.146;38.734;2023-09-07T01:45:08;3.58;;;1.17;;
72422;SDS011;71399;54.146;38.734;2023-09-07T01:47:35;5.35;;;1.50;;
72422;SDS011;71399;54.146;38.734;2023-09-07T01:50:01;8.18;;;1.73;;
72422;SDS011;71399;54.146;38.734;2023-09-07T01:52:28;6.65;;;1.38;;
72422;SDS011;71399;54.146;38.734;2023-09-07T01:54:55;5.82;;;1.58;;
72422;SDS011;71399;54.146;38.734;2023-09-07T01:57:21;6.35;;;1.63;;
72422;SDS011;71399;54.146;38.734;2023-09-07T01:59:47;9.30;;;1.30;;
72422;SDS011;71399;54.146;38.734;2023-09-07T02:02:14;4.72;;;1.60;;
72422;SDS011;71399;54.146;38.734;2023-09-07T02:04:41;9.93;;;2.05;;
72422;SDS011;71399;54.146;38.734;2023-09-07T02:07:11;4.07;;;1.40;;
72422;SDS011;71399;54.146;38.734;2023-09-07T02:09:39;10.15;;;1.58;;
72422;SDS011;71399;54.146;38.734;2023-09-07T02:12:05;3.90;;;1.70;;
72422;SDS011;71399;54.146;38.734;2023-09-07T02:14:32;7.50;;;1.77;;
72422;SDS011;71399;54.146;38.734;2023-09-07T02:16:58;2.60;;;1.20;;
72422;SDS011;71399;54.146;38.734;2023-09-07T02:19:24;5.10;;;2.00;;
72422;SDS011;71399;54.146;38.734;2023-09-07T02:21:51;7.68;;;1.45;;
72422;SDS011;71399;54.146;38.734;2023-09-07T02:24:18;4.65;;;1.55;;
72422;SDS011;71399;54.146;38.734;2023-09-07T02:26:44;4.63;;;1.35;;
72422;SDS011;71399;54.146;38.734;2023-09-07T02:29:12;8.05;;;1.20;;
72422;SDS011;71399;54.146;38.734;2023-09-07T02:31:39;4.85;;;1.25;;
72422;SDS011;71399;54.146;38.734;2023-09-07T02:34:06;7.10;;;1.52;;
72422;SDS011;71399;54.146;38.734;2023-09-07T02:36:33;7.78;;;1.95;;
72422;SDS011;71399;54.146;38.734;2023-09-07T02:39:03;6.53;;;1.55;;
72422;SDS011;71399;54.146;38.734;2023-09-07T02:41:30;3.85;;;1.52;;
72422;SDS011;71399;54.146;38.734;2023-09-07T02:43:57;3.83;;;1.90;;
72422;SDS011;71399;54.146;38.734;2023-09-07T02:46:23;6.28;;;1.67;;
72422;SDS011;71399;54.146;38.734;2023-09-07T02:48:49;3.50;;;1.20;;
72422;SDS011;71399;54.146;38.734;2023-09-07T02:51:16;5.53;;;1.40;;
72422;SDS011;71399;54.146;38.734;2023-09-07T02:53:43;8.32;;;1.63;;
72422;SDS011;71399;54.146;38.734;2023-09-07T02:56:09;7.68;;;1.85;;
72422;SDS011;71399;54.146;38.734;2023-09-07T02:58:38;4.78;;;1.50;;
72422;SDS011;71399;54.146;38.734;2023-09-07T03:01:05;6.28;;;1.70;;
72422;SDS011;71399;54.146;38.734;2023-09-07T03:03:34;7.20;;;1.60;;
72422;SDS011;71399;54.146;38.734;2023-09-07T03:06:13;6.82;;;2.85;;
72422;SDS011;71399;54.146;38.734;2023-09-07T03:08:44;5.88;;;1.98;;
72422;SDS011;71399;54.146;38.734;2023-09-07T03:11:11;5.43;;;1.52;;
72422;SDS011;71399;54.146;38.734;2023-09-07T03:13:38;8.52;;;1.75;;
72422;SDS011;71399;54.146;38.734;2023-09-07T03:16:04;6.15;;;1.67;;
72422;SDS011;71399;54.146;38.734;2023-09-07T03:18:31;5.28;;;1.38;;
72422;SDS011;71399;54.146;38.734;2023-09-07T03:20:59;4.40;;;2.05;;
72422;SDS011;71399;54.146;38.734;2023-09-07T03:23:27;5.68;;;1.70;;
72422;SDS011;71399;54.146;38.734;2023-09-07T03:25:54;5.43;;;2.03;;
72422;SDS011;71399;54.146;38.734;2023-09-07T03:28:20;3.40;;;1.35;;
72422;SDS011;71399;54.146;38.734;2023-09-07T03:30:47;6.75;;;1.60;;
72422;SDS011;71399;54.146;38.734;2023-09-07T03:33:13;9.02;;;1.60;;
72422;SDS011;71399;54.146;38.734;2023-09-07T03:35:39;3.72;;;1.30;;
72422;SDS011;71399;54.146;38.734;2023-09-07T03:38:06;5.95;;;1.70;;
72422;SDS011;71399;54.146;38.734;2023-09-07T03:40:32;5.10;;;1.63;;
72422;SDS011;71399;54.146;38.734;2023-09-07T03:42:58;5.78;;;1.50;;
72422;SDS011;71399;54.146;38.734;2023-09-07T03:45:26;5.68;;;1.63;;
72422;SDS011;71399;54.146;38.734;2023-09-07T03:47:52;5.65;;;1.55;;
72422;SDS011;71399;54.146;38.734;2023-09-07T03:50:19;4.65;;;1.60;;
72422;SDS011;71399;54.146;38.734;2023-09-07T03:52:45;8.15;;;1.50;;
72422;SDS011;71399;54.146;38.734;2023-09-07T03:55:12;4.60;;;1.50;;
72422;SDS011;71399;54.146;38.734;2023-09-07T03:57:38;5.28;;;1.75;;
72422;SDS011;71399;54.146;38.734;2023-09-07T04:00:06;3.78;;;1.55;;
72422;SDS011;71399;54.146;38.734;2023-09-07T04:02:38;2.97;;;1.23;;
72422;SDS011;71399;54.146;38.734;2023-09-07T04:05:06;10.00;;;1.63;;
72422;SDS011;71399;54.146;38.734;2023-09-07T04:07:32;6.63;;;1.65;;
72422;SDS011;71399;54.146;38.734;2023-09-07T04:09:58;5.60;;;1.50;;
72422;SDS011;71399;54.146;38.734;2023-09-07T04:12:24;4.15;;;1.15;;
72422;SDS011;71399;54.146;38.734;2023-09-07T04:14:51;2.05;;;1.05;;
72422;SDS011;71399;54.146;38.734;2023-09-07T04:17:18;5.18;;;1.42;;
72422;SDS011;71399;54.146;38.734;2023-09-07T04:19:44;5.20;;;1.70;;
72422;SDS011;71399;54.146;38.734;2023-09-07T04:22:11;4.90;;;1.38;;
72422;SDS011;71399;54.146;38.734;2023-09-07T04:24:37;2.55;;;1.13;;
72422;SDS011;71399;54.146;38.734;2023-09-07T04:27:05;5.05;;;1.40;;
72422;SDS011;71399;54.146;38.734;2023-09-07T04:29:33;3.90;;;1.25;;
72422;SDS011;71399;54.146;38.734;2023-09-07T04:31:59;2.70;;;1.13;;
72422;SDS011;71399;54.146;38.734;2023-09-07T04:34:25;11.23;;;1.55;;
72422;SDS011;71399;54.146;38.734;2023-09-07T04:36:53;6.60;;;1.48;;
72422;SDS011;71399;54.146;38.734;2023-09-07T04:39:19;3.28;;;1.50;;
72422;SDS011;71399;54.146;38.734;2023-09-07T04:41:45;3.35;;;1.45;;
72422;SDS011;71399;54.146;38.734;2023-09-07T04:44:14;3.17;;;1.02;;
72422;SDS011;71399;54.146;38.734;2023-09-07T04:46:40;3.45;;;1.10;;
72422;SDS011;71399;54.146;38.734;2023-09-07T04:49:07;2.13;;;1.10;;
72422;SDS011;71399;54.146;38.734;2023-09-07T04:51:33;2.53;;;1.27;;
72422;SDS011;71399;54.146;38.734;2023-09-07T04:53:59;4.30;;;1.40;;
72422;SDS011;71399;54.146;38.734;2023-09-07T04:56:26;6.00;;;1.20;;
72422;SDS011;71399;54.146;38.734;2023-09-07T04:58:53;4.28;;;1.25;;
72422;SDS011;71399;54.146;38.734;2023-09-07T05:01:20;3.53;;;1.40;;
72422;SDS011;71399;54.146;38.734;2023-09-07T05:03:47;4.07;;;1.20;;
72422;SDS011;71399;54.146;38.734;2023-09-07T05:06:13;4.80;;;1.10;;
72422;SDS011;71399;54.146;38.734;2023-09-07T05:08:39;3.60;;;1.10;;
72422;SDS011;71399;54.146;38.734;2023-09-07T05:11:05;4.25;;;1.48;;
72422;SDS011;71399;54.146;38.734;2023-09-07T05:13:32;7.53;;;1.55;;
72422;SDS011;71399;54.146;38.734;2023-09-07T05:16:00;4.35;;;1.17;;
72422;SDS011;71399;54.146;38.734;2023-09-07T05:18:27;2.53;;;1.25;;
72422;SDS011;71399;54.146;38.734;2023-09-07T05:20:54;4.90;;;1.00;;
72422;SDS011;71399;54.146;38.734;2023-09-07T05:23:20;6.90;;;1.20;;
72422;SDS011;71399;54.146;38.734;2023-09-07T05:25:51;5.30;;;1.33;;
72422;SDS011;71399;54.146;38.734;2023-09-07T05:28:20;2.80;;;1.20;;
72422;SDS011;71399;54.146;38.734;2023-09-07T05:30:48;3.50;;;1.55;;
72422;SDS011;71399;54.146;38.734;2023-09-07T05:33:15;2.97;;;1.08;;
72422;SDS011;71399;54.146;38.734;2023-09-07T05:35:42;6.25;;;1.40;;
72422;SDS011;71399;54.146;38.734;2023-09-07T05:38:09;2.70;;;1.00;;
72422;SDS011;71399;54.146;38.734;2023-09-07T05:40:37;2.67;;;1.02;;
72422;SDS011;71399;54.146;38.734;2023-09-07T05:43:05;5.47;;;1.38;;
72422;SDS011;71399;54.146;38.734;2023-09-07T05:45:36;5.53;;;1.08;;
72422;SDS011;71399;54.146;38.734;2023-09-07T05:48:05;4.40;;;1.42;;
72422;SDS011;71399;54.146;38.734;2023-09-07T05:50:35;2.92;;;1.10;;
72422;SDS011;71399;54.146;38.734;2023-09-07T05:53:03;3.50;;;0.98;;
72422;SDS011;71399;54.146;38.734;2023-09-07T05:55:32;3.30;;;1.20;;
72422;SDS011;71399;54.146;38.734;2023-09-07T05:57:59;3.42;;;1.10;;
72422;SDS011;71399;54.146;38.734;2023-09-07T06:00:27;6.40;;;1.20;;
72422;SDS011;71399;54.146;38.734;2023-09-07T06:02:53;2.42;;;1.00;;
72422;SDS011;71399;54.146;38.734;2023-09-07T06:05:19;2.00;;;0.90;;
72422;SDS011;71399;54.146;38.734;2023-09-07T06:07:47;4.78;;;1.08;;
72422;SDS011;71399;54.146;38.734;2023-09-07T06:10:14;1.85;;;0.70;;
72422;SDS011;71399;54.146;38.734;2023-09-07T06:12:43;2.45;;;1.00;;
72422;SDS011;71399;54.146;38.734;2023-09-07T06:15:10;2.78;;;1.05;;
72422;SDS011;71399;54.146;38.734;2023-09-07T06:17:36;2.60;;;1.05;;
72422;SDS011;71399;54.146;38.734;2023-09-07T06:20:03;6.07;;;1.17;;
72422;SDS011;71399;54.146;38.734;2023-09-07T06:22:30;3.85;;;1.08;;
72422;SDS011;71399;54.146;38.734;2023-09-07T06:24:56;3.10;;;1.08;;
72422;SDS011;71399;54.146;38.734;2023-09-07T06:27:23;4.35;;;1.00;;
72422;SDS011;71399;54.146;38.734;2023-09-07T06:29:49;3.83;;;1.00;;
72422;SDS011;71399;54.146;38.734;2023-09-07T06:32:16;3.65;;;0.98;;
72422;SDS011;71399;54.146;38.734;2023-09-07T06:34:44;7.90;;;2.75;;
72422;SDS011;71399;54.146;38.734;2023-09-07T06:37:11;4.05;;;0.90;;
72422;SDS011;71399;54.146;38.734;2023-09-07T06:39:38;5.18;;;1.00;;
72422;SDS011;71399;54.146;38.734;2023-09-07T06:42:09;1.65;;;0.80;;
72422;SDS011;71399;54.146;38.734;2023-09-07T06:44:45;3.25;;;0.85;;
72422;SDS011;71399;54.146;38.734;2023-09-07T06:47:12;2.22;;;0.70;;
72422;SDS011;71399;54.146;38.734;2023-09-07T06:49:38;1.95;;;0.80;;
72422;SDS011;71399;54.146;38.734;2023-09-07T06:52:05;3.63;;;0.75;;
72422;SDS011;71399;54.146;38.734;2023-09-07T06:54:33;6.75;;;0.90;;
72422;SDS011;71399;54.146;38.734;2023-09-07T06:56:59;1.90;;;0.90;;
72422;SDS011;71399;54.146;38.734;2023-09-07T06:59:25;4.85;;;0.77;;
72422;SDS011;71399;54.146;38.734;2023-09-07T07:01:52;4.15;;;0.90;;
72422;SDS011;71399;54.146;38.734;2023-09-07T07:04:18;5.15;;;0.75;;
72422;SDS011;71399;54.146;38.734;2023-09-07T07:06:44;2.90;;;0.70;;
72422;SDS011;71399;54.146;38.734;2023-09-07T07:09:11;6.68;;;1.02;;
72422;SDS011;71399;54.146;38.734;2023-09-07T07:11:37;1.30;;;0.70;;
72422;SDS011;71399;54.146;38.734;2023-09-07T07:14:06;2.47;;;0.90;;
72422;SDS011;71399;54.146;38.734;2023-09-07T07:16:34;4.55;;;1.10;;
72422;SDS011;71399;54.146;38.734;2023-09-07T07:19:00;9.27;;;1.00;;
72422;SDS011;71399;54.146;38.734;2023-09-07T07:21:26;5.45;;;0.85;;
72422;SDS011;71399;54.146;38.734;2023-09-07T07:23:53;2.63;;;0.68;;
72422;SDS011;71399;54.146;38.734;2023-09-07T07:26:19;1.83;;;0.90;;
72422;SDS011;71399;54.146;38.734;2023-09-07T07:28:45;1.90;;;0.70;;
72422;SDS011;71399;54.146;38.734;2023-09-07T07:31:12;2.28;;;0.98;;
72422;SDS011;71399;54.146;38.734;2023-09-07T07:33:42;1.25;;;0.60;;
72422;SDS011;71399;54.146;38.734;2023-09-07T07:36:09;2.60;;;0.90;;
72422;SDS011;71399;54.146;38.734;2023-09-07T07:38:35;7.68;;;0.80;;
72422;SDS011;71399;54.146;38.734;2023-09-07T07:41:02;5.13;;;0.85;;
72422;SDS011;71399;54.146;38.734;2023-09-07T07:43:29;6.05;;;0.98;;
72422;SDS011;71399;54.146;38.734;2023-09-07T07:45:56;5.07;;;0.70;;
72422;SDS011;71399;54.146;38.734;2023-09-07T07:48:23;4.30;;;0.70;;
72422;SDS011;71399;54.146;38.734;2023-09-07T07:50:49;3.38;;;0.85;;
72422;SDS011;71399;54.146;38.734;2023-09-07T07:53:15;4.50;;;0.73;;
72422;SDS011;71399;54.146;38.734;2023-09-07T07:55:44;2.42;;;0.90;;
72422;SDS011;71399;54.146;38.734;2023-09-07T07:58:13;2.03;;;0.70;;
72422;SDS011;71399;54.146;38.734;2023-09-07T08:00:41;1.60;;;0.60;;
72422;SDS011;71399;54.146;38.734;2023-09-07T08:03:09;4.10;;;0.80;;
72422;SDS011;71399;54.146;38.734;2023-09-07T08:05:36;5.07;;;0.60;;
72422;SDS011;71399;54.146;38.734;2023-09-07T08:08:06;1.45;;;0.60;;
72422;SDS011;71399;54.146;38.734;2023-09-07T08:10:34;5.15;;;0.70;;
72422;SDS011;71399;54.146;38.734;2023-09-07T08:13:02;5.22;;;0.63;;
72422;SDS011;71399;54.146;38.734;2023-09-07T08:15:31;1.73;;;0.60;;
72422;SDS011;71399;54.146;38.734;2023-09-07T08:17:59;1.48;;;0.60;;
72422;SDS011;71399;54.146;38.734;2023-09-07T08:20:26;4.38;;;0.77;;
72422;SDS011;71399;54.146;38.734;2023-09-07T08:22:53;4.80;;;0.77;;
72422;SDS011;71399;54.146;38.734;2023-09-07T08:25:19;7.32;;;0.65;;
72422;SDS011;71399;54.146;38.734;2023-09-07T08:27:47;1.10;;;0.60;;
72422;SDS011;71399;54.146;38.734;2023-09-07T08:30:14;1.08;;;0.52;;
72422;SDS011;71399;54.146;38.734;2023-09-07T08:32:41;2.45;;;0.82;;
72422;SDS011;71399;54.146;38.734;2023-09-07T08:35:11;1.23;;;0.50;;
72422;SDS011;71399;54.146;38.734;2023-09-07T08:40:08;2.35;;;0.63;;
72422;SDS011;71399;54.146;38.734;2023-09-07T08:42:37;0.85;;;0.50;;
72422;SDS011;71399;54.146;38.734;2023-09-07T08:45:07;3.85;;;0.70;;
72422;SDS011;71399;54.146;38.734;2023-09-07T08:47:34;1.23;;;0.57;;
72422;SDS011;71399;54.146;38.734;2023-09-07T08:50:02;1.88;;;0.60;;
72422;SDS011;71399;54.146;38.734;2023-09-07T08:52:32;2.95;;;0.60;;
72422;SDS011;71399;54.146;38.734;2023-09-07T08:54:59;2.55;;;0.65;;
72422;SDS011;71399;54.146;38.734;2023-09-07T08:57:30;6.40;;;0.60;;
72422;SDS011;71399;54.146;38.734;2023-09-07T08:59:57;4.95;;;1.05;;
72422;SDS011;71399;54.146;38.734;2023-09-07T09:02:24;2.60;;;0.57;;
72422;SDS011;71399;54.146;38.734;2023-09-07T09:04:51;4.03;;;0.60;;
72422;SDS011;71399;54.146;38.734;2023-09-07T09:07:19;2.67;;;0.70;;
72422;SDS011;71399;54.146;38.734;2023-09-07T09:09:46;1.27;;;0.68;;
72422;SDS011;71399;54.146;38.734;2023-09-07T09:12:12;2.13;;;0.57;;
72422;SDS011;71399;54.146;38.734;2023-09-07T09:14:41;1.85;;;0.60;;
72422;SDS011;71399;54.146;38.734;2023-09-07T09:17:13;6.03;;;1.23;;
72422;SDS011;71399;54.146;38.734;2023-09-07T09:19:40;4.38;;;0.60;;
72422;SDS011;71399;54.146;38.734;2023-09-07T09:22:07;2.30;;;0.60;;
72422;SDS011;71399;54.146;38.734;2023-09-07T09:24:34;1.58;;;0.60;;
72422;SDS011;71399;54.146;38.734;2023-09-07T09:27:00;5.57;;;0.60;;
72422;SDS011;71399;54.146;38.734;2023-09-07T09:29:27;4.03;;;0.70;;
72422;SDS011;71399;54.146;38.734;2023-09-07T09:31:53;1.13;;;0.55;;
72422;SDS011;71399;54.146;38.734;2023-09-07T09:34:20;4.25;;;0.70;;
72422;SDS011;71399;54.146;38.734;2023-09-07T09:36:47;2.47;;;0.73;;
72422;SDS011;71399;54.146;38.734;2023-09-07T09:39:21;8.95;;;0.82;;
72422;SDS011;71399;54.146;38.734;2023-09-07T09:41:49;7.22;;;1.00;;
72422;SDS011;71399;54.146;38.734;2023-09-07T09:44:16;1.83;;;0.50;;
72422;SDS011;71399;54.146;38.734;2023-09-07T09:46:42;2.83;;;0.50;;
72422;SDS011;71399;54.146;38.734;2023-09-07T09:49:10;1.00;;;0.40;;
72422;SDS011;71399;54.146;38.734;2023-09-07T09:51:39;3.05;;;0.60;;
72422;SDS011;71399;54.146;38.734;2023-09-07T09:54:06;3.00;;;0.77;;
72422;SDS011;71399;54.146;38.734;2023-09-07T09:56:32;2.83;;;0.50;;
72422;SDS011;71399;54.146;38.734;2023-09-07T09:58:59;3.05;;;0.50;;
72422;SDS011;71399;54.146;38.734;2023-09-07T10:01:25;3.35;;;0.70;;
72422;SDS011;71399;54.146;38.734;2023-09-07T10:03:51;1.98;;;0.63;;
72422;SDS011;71399;54.146;38.734;2023-09-07T10:11:33;6.25;;;0.70;;
72422;SDS011;71399;54.146;38.734;2023-09-07T10:14:01;2.95;;;0.60;;
72422;SDS011;71399;54.146;38.734;2023-09-07T10:16:29;2.03;;;0.70;;
72422;SDS011;71399;54.146;38.734;2023-09-07T10:19:16;2.03;;;0.65;;
72422;SDS011;71399;54.146;38.734;2023-09-07T10:21:53;0.98;;;0.50;;
72422;SDS011;71399;54.146;38.734;2023-09-07T10:24:23;7.45;;;1.05;;
72422;SDS011;71399;54.146;38.734;2023-09-07T10:27:01;1.35;;;0.55;;
72422;SDS011;71399;54.146;38.734;2023-09-07T10:29:40;2.45;;;0.50;;
72422;SDS011;71399;54.146;38.734;2023-09-07T10:34:39;1.92;;;0.63;;
72422;SDS011;71399;54.146;38.734;2023-09-07T10:37:12;1.20;;;0.50;;
72422;SDS011;71399;54.146;38.734;2023-09-07T10:39:39;2.92;;;0.63;;
72422;SDS011;71399;54.146;38.734;2023-09-07T10:42:30;2.03;;;0.57;;
72422;SDS011;71399;54.146;38.734;2023-09-07T10:44:55;1.25;;;0.70;;
72422;SDS011;71399;54.146;38.734;2023-09-07T10:47:33;3.47;;;0.70;;
72422;SDS011;71399;54.146;38.734;2023-09-07T10:50:00;3.63;;;0.63;;
72422;SDS011;71399;54.146;38.734;2023-09-07T10:52:27;3.40;;;0.90;;
72422;SDS011;71399;54.146;38.734;2023-09-07T10:54:57;4.18;;;0.70;;
72422;SDS011;71399;54.146;38.734;2023-09-07T10:57:23;11.23;;;0.88;;
72422;SDS011;71399;54.146;38.734;2023-09-07T10:59:49;3.90;;;0.77;;
72422;SDS011;71399;54.146;38.734;2023-09-07T11:02:20;3.47;;;0.60;;
72422;SDS011;71399;54.146;38.734;2023-09-07T11:04:46;1.52;;;0.70;;
72422;SDS011;71399;54.146;38.734;2023-09-07T11:07:13;2.72;;;0.70;;
72422;SDS011;71399;54.146;38.734;2023-09-07T11:09:42;2.97;;;0.77;;
72422;SDS011;71399;54.146;38.734;2023-09-07T11:12:12;2.05;;;0.68;;
72422;SDS011;71399;54.146;38.734;2023-09-07T11:14:41;1.67;;;0.70;;
72422;SDS011;71399;54.146;38.734;2023-09-07T11:17:07;2.53;;;0.90;;
72422;SDS011;71399;54.146;38.734;2023-09-07T11:19:34;1.60;;;0.55;;
72422;SDS011;71399;54.146;38.734;2023-09-07T11:22:00;9.15;;;0.90;;
72422;SDS011;71399;54.146;38.734;2023-09-07T11:24:30;5.57;;;1.10;;
72422;SDS011;71399;54.146;38.734;2023-09-07T11:26:57;2.10;;;0.70;;
72422;SDS011;71399;54.146;38.734;2023-09-07T11:29:24;4.28;;;1.17;;
72422;SDS011;71399;54.146;38.734;2023-09-07T11:31:50;4.40;;;0.80;;
72422;SDS011;71399;54.146;38.734;2023-09-07T11:34:16;2.65;;;0.73;;
72422;SDS011;71399;54.146;38.734;2023-09-07T11:36:42;2.50;;;0.70;;
72422;SDS011;71399;54.146;38.734;2023-09-07T11:39:09;3.72;;;0.90;;
72422;SDS011;71399;54.146;38.734;2023-09-07T11:41:40;2.42;;;0.75;;
72422;SDS011;71399;54.146;38.734;2023-09-07T11:44:10;1.55;;;0.70;;
72422;SDS011;71399;54.146;38.734;2023-09-07T11:46:37;4.68;;;1.40;;
72422;SDS011;71399;54.146;38.734;2023-09-07T11:49:03;5.93;;;0.88;;
72422;SDS011;71399;54.146;38.734;2023-09-07T11:51:34;1.48;;;0.60;;
72422;SDS011;71399;54.146;38.734;2023-09-07T11:54:03;2.92;;;0.60;;
72422;SDS011;71399;54.146;38.734;2023-09-07T11:56:30;3.28;;;0.73;;
72422;SDS011;71399;54.146;38.734;2023-09-07T11:58:56;2.72;;;0.80;;
72422;SDS011;71399;54.146;38.734;2023-09-07T12:01:23;4.63;;;0.95;;
72422;SDS011;71399;54.146;38.734;2023-09-07T12:03:49;3.97;;;0.82;;
72422;SDS011;71399;54.146;38.734;2023-09-07T12:06:15;8.90;;;1.00;;
72422;SDS011;71399;54.146;38.734;2023-09-07T12:08:42;3.63;;;0.90;;
72422;SDS011;71399;54.146;38.734;2023-09-07T12:11:23;8.90;;;2.05;;
72422;SDS011;71399;54.146;38.734;2023-09-07T12:13:49;8.95;;;1.13;;
72422;SDS011;71399;54.146;38.734;2023-09-07T12:16:16;4.85;;;1.25;;
72422;SDS011;71399;54.146;38.734;2023-09-07T12:18:42;6.47;;;1.00;;
72422;SDS011;71399;54.146;38.734;2023-09-07T12:21:08;5.68;;;0.90;;
72422;SDS011;71399;54.146;38.734;2023-09-07T12:23:34;8.30;;;0.82;;
72422;SDS011;71399;54.146;38.734;2023-09-07T12:26:01;6.45;;;1.90;;
72422;SDS011;71399;54.146;38.734;2023-09-07T12:28:30;7.38;;;2.70;;
72422;SDS011;71399;54.146;38.734;2023-09-07T12:30:57;8.02;;;1.90;;
72422;SDS011;71399;54.146;38.734;2023-09-07T12:33:24;5.28;;;1.17;;
72422;SDS011;71399;54.146;38.734;2023-09-07T12:35:50;8.55;;;1.38;;
72422;SDS011;71399;54.146;38.734;2023-09-07T12:38:17;6.25;;;1.70;;
72422;SDS011;71399;54.146;38.734;2023-09-07T12:40:45;3.92;;;1.50;;
72422;SDS011;71399;54.146;38.734;2023-09-07T12:43:11;4.85;;;1.30;;
72422;SDS011;71399;54.146;38.734;2023-09-07T12:45:38;4.75;;;2.00;;
72422;SDS011;71399;54.146;38.734;2023-09-07T12:48:04;6.57;;;1.60;;
72422;SDS011;71399;54.146;38.734;2023-09-07T12:50:31;3.60;;;1.35;;
72422;SDS011;71399;54.146;38.734;2023-09-07T12:52:57;5.38;;;1.88;;
72422;SDS011;71399;54.146;38.734;2023-09-07T12:55:24;4.75;;;1.48;;
72422;SDS011;71399;54.146;38.734;2023-09-07T12:57:50;3.60;;;1.27;;
72422;SDS011;71399;54.146;38.734;2023-09-07T13:00:16;4.75;;;0.90;;
72422;SDS011;71399;54.146;38.734;2023-09-07T13:02:43;2.60;;;0.73;;
72422;SDS011;71399;54.146;38.734;2023-09-07T13:05:09;6.22;;;2.25;;
72422;SDS011;71399;54.146;38.734;2023-09-07T13:07:35;6.90;;;1.33;;
72422;SDS011;71399;54.146;38.734;2023-09-07T13:10:01;13.45;;;1.80;;
72422;SDS011;71399;54.146;38.734;2023-09-07T13:12:30;5.30;;;2.03;;
72422;SDS011;71399;54.146;38.734;2023-09-07T13:14:58;8.38;;;1.33;;
72422;SDS011;71399;54.146;38.734;2023-09-07T13:17:24;5.97;;;1.05;;
72422;SDS011;71399;54.146;38.734;2023-09-07T13:19:51;3.38;;;0.85;;
72422;SDS011;71399;54.146;38.734;2023-09-07T13:22:17;2.65;;;1.00;;
72422;SDS011;71399;54.146;38.734;2023-09-07T13:24:43;5.35;;;1.20;;
72422;SDS011;71399;54.146;38.734;2023-09-07T13:27:09;7.78;;;2.47;;
72422;SDS011;71399;54.146;38.734;2023-09-07T13:29:35;5.45;;;2.30;;
72422;SDS011;71399;54.146;38.734;2023-09-07T13:32:03;5.05;;;1.60;;
72422;SDS011;71399;54.146;38.734;2023-09-07T13:34:29;7.07;;;2.33;;
72422;SDS011;71399;54.146;38.734;2023-09-07T13:36:55;12.65;;;5.40;;
72422;SDS011;71399;54.146;38.734;2023-09-07T13:39:22;10.18;;;4.85;;
72422;SDS011;71399;54.146;38.734;2023-09-07T13:41:49;4.28;;;1.92;;
72422;SDS011;71399;54.146;38.734;2023-09-07T13:44:15;2.83;;;1.30;;
72422;SDS011;71399;54.146;38.734;2023-09-07T13:46:43;3.72;;;1.25;;
72422;SDS011;71399;54.146;38.734;2023-09-07T13:49:10;4.28;;;1.02;;
72422;SDS011;71399;54.146;38.734;2023-09-07T13:51:36;2.72;;;0.80;;
72422;SDS011;71399;54.146;38.734;2023-09-07T13:54:06;2.05;;;0.80;;
72422;SDS011;71399;54.146;38.734;2023-09-07T13:56:34;1.98;;;0.80;;
72422;SDS011;71399;54.146;38.734;2023-09-07T13:59:02;3.08;;;1.35;;
72422;SDS011;71399;54.146;38.734;2023-09-07T14:01:28;1.35;;;0.68;;
72422;SDS011;71399;54.146;38.734;2023-09-07T14:03:54;2.70;;;0.93;;
72422;SDS011;71399;54.146;38.734;2023-09-07T14:06:20;2.30;;;0.80;;
72422;SDS011;71399;54.146;38.734;2023-09-07T14:08:49;3.38;;;0.90;;
72422;SDS011;71399;54.146;38.734;2023-09-07T14:11:17;2.17;;;1.00;;
72422;SDS011;71399;54.146;38.734;2023-09-07T14:13:43;3.28;;;0.88;;
72422;SDS011;71399;54.146;38.734;2023-09-07T14:16:09;5.95;;;1.30;;
72422;SDS011;71399;54.146;38.734;2023-09-07T14:18:36;3.88;;;0.85;;
72422;SDS011;71399;54.146;38.734;2023-09-07T14:21:02;3.63;;;0.80;;
72422;SDS011;71399;54.146;38.734;2023-09-07T14:23:29;1.85;;;1.00;;
72422;SDS011;71399;54.146;38.734;2023-09-07T14:25:55;2.35;;;0.73;;
72422;SDS011;71399;54.146;38.734;2023-09-07T14:28:21;2.05;;;0.73;;
72422;SDS011;71399;54.146;38.734;2023-09-07T14:30:48;3.85;;;0.80;;
72422;SDS011;71399;54.146;38.734;2023-09-07T14:33:14;3.97;;;0.90;;
72422;SDS011;71399;54.146;38.734;2023-09-07T14:35:40;1.77;;;0.70;;
72422;SDS011;71399;54.146;38.734;2023-09-07T14:38:06;1.67;;;0.70;;
72422;SDS011;71399;54.146;38.734;2023-09-07T14:40:32;6.05;;;0.93;;
72422;SDS011;71399;54.146;38.734;2023-09-07T14:42:59;1.17;;;0.65;;
72422;SDS011;71399;54.146;38.734;2023-09-07T14:45:25;5.55;;;1.02;;